sensor_id;sensor_type;location;lat;lon;timestamp;pressure;altitude;pressure_sealevel;temperature;humidity
57779;BME280;43608;49.486;9.640;2023-09-08T00:00:06;98957.78;;;13.17;91.92
57779;BME280;43608;49.486;9.640;2023-09-08T00:00:37;98959.56;;;13.16;91.70
57779;BME280;43608;49.486;9.640;2023-09-08T00:01:07;98959.56;;;13.16;91.74
57779;BME280;43608;49.486;9.640;2023-09-08T00:01:37;98966.63;;;13.20;91.46
57779;BME280;43608;49.486;9.640;2023-09-08T00:02:08;98956.94;;;13.12;91.61
57779;BME280;43608;49.486;9.640;2023-09-08T00:02:38;98968.41;;;13.18;91.53
57779;BME280;43608;49.486;9.640;2023-09-08T00:03:08;98970.19;;;13.18;91.58
57779;BME280;43608;49.486;9.640;2023-09-08T00:03:39;98965.75;;;13.18;91.44
57779;BME280;43608;49.486;9.640;2023-09-08T00:04:09;98938.47;;;12.99;91.33
57779;BME280;43608;49.486;9.640;2023-09-08T00:04:40;98970.25;;;13.15;91.43
57779;BME280;43608;49.486;9.640;2023-09-08T00:05:10;98967.56;;;13.16;91.66
57779;BME280;43608;49.486;9.640;2023-09-08T00:05:41;98957.00;;;13.07;91.41
57779;BME280;43608;49.486;9.640;2023-09-08T00:06:11;98965.78;;;13.15;91.69
57779;BME280;43608;49.486;9.640;2023-09-08T00:06:42;98967.56;;;13.13;91.57
57779;BME280;43608;49.486;9.640;2023-09-08T00:07:12;98966.69;;;13.13;91.80
57779;BME280;43608;49.486;9.640;2023-09-08T00:07:42;98956.13;;;13.05;91.52
57779;BME280;43608;49.486;9.640;2023-09-08T00:08:13;98973.81;;;13.12;91.31
57779;BME280;43608;49.486;9.640;2023-09-08T00:08:43;98975.56;;;13.12;91.62
57779;BME280;43608;49.486;9.640;2023-09-08T00:09:14;98972.00;;;13.14;91.69
57779;BME280;43608;49.486;9.640;2023-09-08T00:09:44;98975.56;;;13.13;91.64
57779;BME280;43608;49.486;9.640;2023-09-08T00:10:14;98962.34;;;13.04;91.41
57779;BME280;43608;49.486;9.640;2023-09-08T00:10:45;98964.06;;;13.08;91.66
57779;BME280;43608;49.486;9.640;2023-09-08T00:11:17;98965.84;;;13.12;91.30
57779;BME280;43608;49.486;9.640;2023-09-08T00:11:47;98967.66;;;13.07;91.67
57779;BME280;43608;49.486;9.640;2023-09-08T00:12:18;98953.47;;;13.05;91.54
57779;BME280;43608;49.486;9.640;2023-09-08T00:12:48;98944.66;;;12.98;91.36
57779;BME280;43608;49.486;9.640;2023-09-08T00:13:18;98959.72;;;13.02;91.61
57779;BME280;43608;49.486;9.640;2023-09-08T00:13:49;98964.06;;;13.11;91.52
57779;BME280;43608;49.486;9.640;2023-09-08T00:14:20;98968.47;;;13.11;91.44
57779;BME280;43608;49.486;9.640;2023-09-08T00:14:51;98972.94;;;13.10;91.47
57779;BME280;43608;49.486;9.640;2023-09-08T00:15:21;98967.66;;;13.07;91.77
57779;BME280;43608;49.486;9.640;2023-09-08T00:15:51;98976.47;;;13.09;91.67
57779;BME280;43608;49.486;9.640;2023-09-08T00:16:22;98950.00;;;12.98;91.71
57779;BME280;43608;49.486;9.640;2023-09-08T00:16:53;98931.50;;;12.87;91.66
57779;BME280;43608;49.486;9.640;2023-09-08T00:17:26;98969.41;;;13.06;91.77
57779;BME280;43608;49.486;9.640;2023-09-08T00:17:56;98970.31;;;13.05;91.66
57779;BME280;43608;49.486;9.640;2023-09-08T00:18:27;98953.59;;;12.94;91.68
57779;BME280;43608;49.486;9.640;2023-09-08T00:18:57;98951.78;;;12.95;91.66
57779;BME280;43608;49.486;9.640;2023-09-08T00:19:28;98969.47;;;13.03;91.66
57779;BME280;43608;49.486;9.640;2023-09-08T00:19:59;98951.84;;;12.90;91.59
57779;BME280;43608;49.486;9.640;2023-09-08T00:20:29;98941.25;;;12.85;91.68
57779;BME280;43608;49.486;9.640;2023-09-08T00:20:59;98968.63;;;12.98;91.70
57779;BME280;43608;49.486;9.640;2023-09-08T00:21:30;98965.06;;;12.98;91.46
57779;BME280;43608;49.486;9.640;2023-09-08T00:22:00;98959.78;;;12.95;91.77
57779;BME280;43608;49.486;9.640;2023-09-08T00:22:31;98947.44;;;12.86;91.93
57779;BME280;43608;49.486;9.640;2023-09-08T00:23:01;98968.63;;;12.97;91.72
57779;BME280;43608;49.486;9.640;2023-09-08T00:23:31;98961.56;;;12.94;91.91
57779;BME280;43608;49.486;9.640;2023-09-08T00:24:02;98972.19;;;12.93;91.73
57779;BME280;43608;49.486;9.640;2023-09-08T00:24:34;98956.34;;;12.85;92.00
57779;BME280;43608;49.486;9.640;2023-09-08T00:25:05;98972.19;;;12.93;92.01
57779;BME280;43608;49.486;9.640;2023-09-08T00:25:35;98950.16;;;12.81;92.02
57779;BME280;43608;49.486;9.640;2023-09-08T00:26:05;98961.63;;;12.88;92.04
57779;BME280;43608;49.486;9.640;2023-09-08T00:26:36;98973.13;;;12.88;92.13
57779;BME280;43608;49.486;9.640;2023-09-08T00:27:07;98946.66;;;12.76;92.03
57779;BME280;43608;49.486;9.640;2023-09-08T00:27:37;98951.94;;;12.78;92.01
57779;BME280;43608;49.486;9.640;2023-09-08T00:28:07;98948.41;;;12.79;92.28
57779;BME280;43608;49.486;9.640;2023-09-08T00:28:38;98975.81;;;12.87;92.19
57779;BME280;43608;49.486;9.640;2023-09-08T00:29:08;98941.41;;;12.68;92.22
57779;BME280;43608;49.486;9.640;2023-09-08T00:29:39;98971.38;;;12.86;92.53
57779;BME280;43608;49.486;9.640;2023-09-08T00:30:10;98967.88;;;12.84;92.09
57779;BME280;43608;49.486;9.640;2023-09-08T00:30:40;98972.28;;;12.83;92.63
57779;BME280;43608;49.486;9.640;2023-09-08T00:31:11;98974.94;;;12.83;92.39
57779;BME280;43608;49.486;9.640;2023-09-08T00:31:42;98970.53;;;12.84;92.52
57779;BME280;43608;49.486;9.640;2023-09-08T00:32:12;98974.06;;;12.84;92.36
57779;BME280;43608;49.486;9.640;2023-09-08T00:32:42;98956.44;;;12.72;92.40
57779;BME280;43608;49.486;9.640;2023-09-08T00:33:13;98976.72;;;12.83;92.53
57779;BME280;43608;49.486;9.640;2023-09-08T00:33:43;98971.44;;;12.78;92.42
57779;BME280;43608;49.486;9.640;2023-09-08T00:34:14;98961.72;;;12.76;92.48
57779;BME280;43608;49.486;9.640;2023-09-08T00:34:44;98961.78;;;12.71;92.72
57779;BME280;43608;49.486;9.640;2023-09-08T00:35:15;98974.13;;;12.80;92.47
57779;BME280;43608;49.486;9.640;2023-09-08T00:35:48;98973.25;;;12.76;92.59
57779;BME280;43608;49.486;9.640;2023-09-08T00:36:19;98956.47;;;12.68;92.75
57779;BME280;43608;49.486;9.640;2023-09-08T00:36:50;98950.34;;;12.58;92.62
57779;BME280;43608;49.486;9.640;2023-09-08T00:37:21;98967.91;;;12.78;92.65
57779;BME280;43608;49.486;9.640;2023-09-08T00:37:51;98954.69;;;12.68;92.63
57779;BME280;43608;49.486;9.640;2023-09-08T00:38:21;98971.50;;;12.73;92.73
57779;BME280;43608;49.486;9.640;2023-09-08T00:38:52;98960.88;;;12.70;92.64
57779;BME280;43608;49.486;9.640;2023-09-08T00:39:22;98957.41;;;12.62;92.95
57779;BME280;43608;49.486;9.640;2023-09-08T00:39:52;98972.41;;;12.71;92.95
57779;BME280;43608;49.486;9.640;2023-09-08T00:42:14;98974.16;;;12.70;92.75
57779;BME280;43608;49.486;9.640;2023-09-08T00:42:44;98964.50;;;12.63;92.90
57779;BME280;43608;49.486;9.640;2023-09-08T00:43:14;98955.63;;;12.61;92.93
57779;BME280;43608;49.486;9.640;2023-09-08T00:43:45;98962.69;;;12.64;92.82
57779;BME280;43608;49.486;9.640;2023-09-08T00:44:15;98970.66;;;12.68;92.87
57779;BME280;43608;49.486;9.640;2023-09-08T00:44:46;98961.88;;;12.60;93.21
57779;BME280;43608;49.486;9.640;2023-09-08T00:45:16;98951.25;;;12.55;92.81
57779;BME280;43608;49.486;9.640;2023-09-08T00:45:48;98967.13;;;12.65;93.04
57779;BME280;43608;49.486;9.640;2023-09-08T00:46:19;98970.69;;;12.62;93.04
57779;BME280;43608;49.486;9.640;2023-09-08T00:46:49;98956.56;;;12.55;93.00
57779;BME280;43608;49.486;9.640;2023-09-08T00:47:20;98969.81;;;12.62;92.95
57779;BME280;43608;49.486;9.640;2023-09-08T00:47:50;98970.69;;;12.62;92.72
57779;BME280;43608;49.486;9.640;2023-09-08T00:48:21;98962.75;;;12.61;92.82
57779;BME280;43608;49.486;9.640;2023-09-08T00:48:51;98954.81;;;12.54;93.00
57779;BME280;43608;49.486;9.640;2023-09-08T00:49:22;98957.47;;;12.53;92.78
57779;BME280;43608;49.486;9.640;2023-09-08T00:49:52;98971.59;;;12.61;92.90
57779;BME280;43608;49.486;9.640;2023-09-08T00:50:23;98956.59;;;12.52;93.29
57779;BME280;43608;49.486;9.640;2023-09-08T00:50:53;98973.34;;;12.62;92.80
57779;BME280;43608;49.486;9.640;2023-09-08T00:51:23;98961.88;;;12.55;93.13
57779;BME280;43608;49.486;9.640;2023-09-08T00:51:54;98953.06;;;12.52;93.10
57779;BME280;43608;49.486;9.640;2023-09-08T00:52:25;98970.72;;;12.59;93.23
57779;BME280;43608;49.486;9.640;2023-09-08T00:53:01;98952.19;;;12.50;93.21
57779;BME280;43608;49.486;9.640;2023-09-08T00:53:31;98959.28;;;12.52;93.26
57779;BME280;43608;49.486;9.640;2023-09-08T00:54:02;98966.34;;;12.55;93.26
57779;BME280;43608;49.486;9.640;2023-09-08T00:54:32;98963.66;;;12.53;93.13
57779;BME280;43608;49.486;9.640;2023-09-08T00:55:03;98977.81;;;12.60;93.30
57779;BME280;43608;49.486;9.640;2023-09-08T00:55:34;98949.53;;;12.48;93.34
57779;BME280;43608;49.486;9.640;2023-09-08T00:56:04;98952.22;;;12.45;93.22
57779;BME280;43608;49.486;9.640;2023-09-08T00:56:37;98968.13;;;12.53;93.04
57779;BME280;43608;49.486;9.640;2023-09-08T00:57:09;98975.16;;;12.57;93.31
57779;BME280;43608;49.486;9.640;2023-09-08T00:57:40;98968.06;;;12.56;93.43
57779;BME280;43608;49.486;9.640;2023-09-08T00:58:11;98963.66;;;12.56;93.24
57779;BME280;43608;49.486;9.640;2023-09-08T00:58:41;98972.53;;;12.55;93.37
57779;BME280;43608;49.486;9.640;2023-09-08T00:59:12;98965.47;;;12.51;92.93
57779;BME280;43608;49.486;9.640;2023-09-08T00:59:43;98968.13;;;12.53;93.00
57779;BME280;43608;49.486;9.640;2023-09-08T01:00:15;98969.88;;;12.54;93.05
57779;BME280;43608;49.486;9.640;2023-09-08T01:00:45;98976.09;;;12.53;93.10
57779;BME280;43608;49.486;9.640;2023-09-08T01:01:17;98961.97;;;12.46;93.27
57779;BME280;43608;49.486;9.640;2023-09-08T01:01:47;98963.72;;;12.46;92.95
57779;BME280;43608;49.486;9.640;2023-09-08T01:02:18;98972.53;;;12.51;93.03
57779;BME280;43608;49.486;9.640;2023-09-08T01:02:48;98951.38;;;12.38;92.99
57779;BME280;43608;49.486;9.640;2023-09-08T01:03:18;98964.59;;;12.48;92.97
57779;BME280;43608;49.486;9.640;2023-09-08T01:03:49;98968.16;;;12.50;93.14
57779;BME280;43608;49.486;9.640;2023-09-08T01:04:20;98973.47;;;12.50;92.99
57779;BME280;43608;49.486;9.640;2023-09-08T01:04:50;98975.22;;;12.49;92.84
57779;BME280;43608;49.486;9.640;2023-09-08T01:05:21;98978.78;;;12.50;92.73
57779;BME280;43608;49.486;9.640;2023-09-08T01:05:52;98962.00;;;12.42;92.82
57779;BME280;43608;49.486;9.640;2023-09-08T01:06:23;98962.88;;;12.40;92.62
57779;BME280;43608;49.486;9.640;2023-09-08T01:06:55;98964.66;;;12.42;92.84
57779;BME280;43608;49.486;9.640;2023-09-08T01:07:28;98967.31;;;12.42;92.84
57779;BME280;43608;49.486;9.640;2023-09-08T01:08:00;98953.19;;;12.33;93.21
57779;BME280;43608;49.486;9.640;2023-09-08T01:08:31;98960.22;;;12.39;92.97
57779;BME280;43608;49.486;9.640;2023-09-08T01:09:02;98962.91;;;12.37;92.96
57779;BME280;43608;49.486;9.640;2023-09-08T01:09:34;98950.56;;;12.32;92.93
57779;BME280;43608;49.486;9.640;2023-09-08T01:10:05;98921.44;;;12.13;93.01
57779;BME280;43608;49.486;9.640;2023-09-08T01:10:36;98974.38;;;12.43;93.08
57779;BME280;43608;49.486;9.640;2023-09-08T01:11:07;98959.41;;;12.32;93.22
57779;BME280;43608;49.486;9.640;2023-09-08T01:11:37;98973.53;;;12.42;93.19
57779;BME280;43608;49.486;9.640;2023-09-08T01:12:08;98959.41;;;12.31;93.18
57779;BME280;43608;49.486;9.640;2023-09-08T01:12:39;98974.44;;;12.39;93.36
57779;BME280;43608;49.486;9.640;2023-09-08T01:13:09;98962.06;;;12.32;93.40
57779;BME280;43608;49.486;9.640;2023-09-08T01:13:40;98968.25;;;12.36;93.47
57779;BME280;43608;49.486;9.640;2023-09-08T01:14:13;98967.38;;;12.32;93.42
57779;BME280;43608;49.486;9.640;2023-09-08T01:14:44;98975.31;;;12.35;93.25
57779;BME280;43608;49.486;9.640;2023-09-08T01:15:14;98962.97;;;12.30;93.56
57779;BME280;43608;49.486;9.640;2023-09-08T01:15:44;98949.72;;;12.22;93.63
57779;BME280;43608;49.486;9.640;2023-09-08T01:16:15;98946.19;;;12.18;93.63
57779;BME280;43608;49.486;9.640;2023-09-08T01:16:45;98974.47;;;12.32;93.51
57779;BME280;43608;49.486;9.640;2023-09-08T01:17:15;98982.41;;;12.35;93.72
57779;BME280;43608;49.486;9.640;2023-09-08T01:17:46;98975.34;;;12.32;93.63
57779;BME280;43608;49.486;9.640;2023-09-08T01:18:16;98973.56;;;12.31;93.57
57779;BME280;43608;49.486;9.640;2023-09-08T01:18:47;98975.38;;;12.29;93.36
57779;BME280;43608;49.486;9.640;2023-09-08T01:19:19;98953.28;;;12.19;93.49
57779;BME280;43608;49.486;9.640;2023-09-08T01:19:55;98955.94;;;12.19;93.57
57779;BME280;43608;49.486;9.640;2023-09-08T01:20:30;98964.78;;;12.21;93.53
57779;BME280;43608;49.486;9.640;2023-09-08T01:21:36;98970.97;;;12.25;93.64
57779;BME280;43608;49.486;9.640;2023-09-08T01:22:46;98976.28;;;12.25;93.74
57779;BME280;43608;49.486;9.640;2023-09-08T01:23:24;98974.53;;;12.24;93.58
57779;BME280;43608;49.486;9.640;2023-09-08T01:26:20;98966.56;;;12.19;93.94
57779;BME280;43608;49.486;9.640;2023-09-08T01:26:51;98979.84;;;12.21;93.92
57779;BME280;43608;49.486;9.640;2023-09-08T01:27:24;98972.78;;;12.20;93.96
57779;BME280;43608;49.486;9.640;2023-09-08T01:27:58;98965.69;;;12.16;93.91
57779;BME280;43608;49.486;9.640;2023-09-08T01:28:31;98941.91;;;12.00;93.96
57779;BME280;43608;49.486;9.640;2023-09-08T01:29:03;98965.72;;;12.13;94.03
57779;BME280;43608;49.486;9.640;2023-09-08T01:29:37;98973.69;;;12.17;94.12
57779;BME280;43608;49.486;9.640;2023-09-08T01:30:08;98968.38;;;12.14;94.12
57779;BME280;43608;49.486;9.640;2023-09-08T01:30:39;98951.59;;;12.07;94.04
57779;BME280;43608;49.486;9.640;2023-09-08T01:31:10;98946.28;;;12.03;94.12
57779;BME280;43608;49.486;9.640;2023-09-08T01:31:40;98967.50;;;12.14;94.33
57779;BME280;43608;49.486;9.640;2023-09-08T01:32:11;98970.13;;;12.17;94.15
57779;BME280;43608;49.486;9.640;2023-09-08T01:32:42;98961.28;;;12.12;94.28
57779;BME280;43608;49.486;9.640;2023-09-08T01:33:14;98953.38;;;12.02;94.22
57779;BME280;43608;49.486;9.640;2023-09-08T01:33:45;98968.38;;;12.17;94.39
57779;BME280;43608;49.486;9.640;2023-09-08T01:34:16;98963.97;;;12.10;94.48
57779;BME280;43608;49.486;9.640;2023-09-08T01:34:46;98969.28;;;12.15;94.29
57779;BME280;43608;49.486;9.640;2023-09-08T01:35:17;98965.75;;;12.10;93.92
57779;BME280;43608;49.486;9.640;2023-09-08T01:35:47;98945.44;;;11.99;94.20
57779;BME280;43608;49.486;9.640;2023-09-08T01:36:18;98952.53;;;12.00;94.16
57779;BME280;43608;49.486;9.640;2023-09-08T01:36:48;98957.84;;;12.02;94.40
57779;BME280;43608;49.486;9.640;2023-09-08T01:37:22;98971.94;;;12.10;94.35
57779;BME280;43608;49.486;9.640;2023-09-08T01:37:53;98967.50;;;12.09;94.20
57779;BME280;43608;49.486;9.640;2023-09-08T01:38:25;98969.28;;;12.05;94.21
57779;BME280;43608;49.486;9.640;2023-09-08T01:38:55;98972.81;;;12.12;94.30
57779;BME280;43608;49.486;9.640;2023-09-08T01:39:25;98951.66;;;11.97;94.16
57779;BME280;43608;49.486;9.640;2023-09-08T01:39:56;98966.66;;;12.02;94.22
57779;BME280;43608;49.486;9.640;2023-09-08T01:40:26;98970.16;;;12.09;94.25
57779;BME280;43608;49.486;9.640;2023-09-08T01:40:56;98971.06;;;12.06;94.16
57779;BME280;43608;49.486;9.640;2023-09-08T01:41:27;98975.50;;;12.07;94.22
57779;BME280;43608;49.486;9.640;2023-09-08T01:41:57;98968.47;;;12.00;94.27
57779;BME280;43608;49.486;9.640;2023-09-08T01:42:28;98972.84;;;12.07;94.17
57779;BME280;43608;49.486;9.640;2023-09-08T01:42:58;98973.75;;;12.05;94.09
57779;BME280;43608;49.486;9.640;2023-09-08T01:43:29;98968.47;;;12.02;94.63
57779;BME280;43608;49.486;9.640;2023-09-08T01:43:59;98982.59;;;12.07;94.16
57779;BME280;43608;49.486;9.640;2023-09-08T01:44:30;98980.81;;;12.06;94.19
57779;BME280;43608;49.486;9.640;2023-09-08T01:45:00;98971.97;;;12.04;94.43
57779;BME280;43608;49.486;9.640;2023-09-08T01:45:31;98966.69;;;11.96;94.55
57779;BME280;43608;49.486;9.640;2023-09-08T01:46:01;98977.28;;;12.04;94.57
57779;BME280;43608;49.486;9.640;2023-09-08T01:46:31;98981.72;;;12.03;94.35
57779;BME280;43608;49.486;9.640;2023-09-08T01:47:02;98973.78;;;12.00;94.45
57779;BME280;43608;49.486;9.640;2023-09-08T01:47:33;98967.59;;;11.97;94.48
57779;BME280;43608;49.486;9.640;2023-09-08T01:48:04;98966.69;;;11.95;94.75
57779;BME280;43608;49.486;9.640;2023-09-08T01:48:34;98974.66;;;11.99;94.76
57779;BME280;43608;49.486;9.640;2023-09-08T01:49:04;98972.00;;;11.95;94.67
57779;BME280;43608;49.486;9.640;2023-09-08T01:49:35;98972.91;;;11.97;94.63
57779;BME280;43608;49.486;9.640;2023-09-08T01:50:05;98971.13;;;11.96;94.63
57779;BME280;43608;49.486;9.640;2023-09-08T01:50:36;98967.59;;;11.90;94.72
57779;BME280;43608;49.486;9.640;2023-09-08T01:51:06;98953.44;;;11.87;94.79
57779;BME280;43608;49.486;9.640;2023-09-08T01:51:36;98936.69;;;11.74;94.56
57779;BME280;43608;49.486;9.640;2023-09-08T01:52:07;98956.09;;;11.90;94.57
57779;BME280;43608;49.486;9.640;2023-09-08T01:52:37;98943.75;;;11.80;94.49
57779;BME280;43608;49.486;9.640;2023-09-08T01:53:07;98969.34;;;11.92;94.48
57779;BME280;43608;49.486;9.640;2023-09-08T01:53:38;98950.81;;;11.81;94.58
57779;BME280;43608;49.486;9.640;2023-09-08T01:54:08;98964.06;;;11.92;94.72
57779;BME280;43608;49.486;9.640;2023-09-08T01:54:39;98944.66;;;11.77;94.35
57779;BME280;43608;49.486;9.640;2023-09-08T01:55:10;98944.63;;;11.79;94.34
57779;BME280;43608;49.486;9.640;2023-09-08T01:55:42;98957.88;;;11.88;94.56
57779;BME280;43608;49.486;9.640;2023-09-08T01:56:12;98946.38;;;11.78;94.35
57779;BME280;43608;49.486;9.640;2023-09-08T01:56:42;98955.22;;;11.82;94.36
57779;BME280;43608;49.486;9.640;2023-09-08T01:57:13;98952.59;;;11.76;94.35
57779;BME280;43608;49.486;9.640;2023-09-08T01:57:44;98957.03;;;11.80;94.24
57779;BME280;43608;49.486;9.640;2023-09-08T01:58:14;98967.59;;;11.84;94.54
57779;BME280;43608;49.486;9.640;2023-09-08T01:58:44;98954.38;;;11.80;94.45
57779;BME280;43608;49.486;9.640;2023-09-08T01:59:15;98951.72;;;11.75;94.39
57779;BME280;43608;49.486;9.640;2023-09-08T01:59:45;98972.03;;;11.85;94.68
57779;BME280;43608;49.486;9.640;2023-09-08T02:00:16;98946.44;;;11.72;94.98
57779;BME280;43608;49.486;9.640;2023-09-08T02:00:50;98964.06;;;11.81;94.80
57779;BME280;43608;49.486;9.640;2023-09-08T02:01:21;98966.75;;;11.82;95.04
57779;BME280;43608;49.486;9.640;2023-09-08T02:01:51;98969.41;;;11.82;94.74
57779;BME280;43608;49.486;9.640;2023-09-08T02:02:22;98930.56;;;11.60;95.04
57779;BME280;43608;49.486;9.640;2023-09-08T02:02:52;98954.41;;;11.72;95.07
57779;BME280;43608;49.486;9.640;2023-09-08T02:03:22;98973.84;;;11.80;94.96
57779;BME280;43608;49.486;9.640;2023-09-08T02:03:53;98953.53;;;11.67;94.99
57779;BME280;43608;49.486;9.640;2023-09-08T02:04:23;98966.78;;;11.76;95.09
57779;BME280;43608;49.486;9.640;2023-09-08T02:04:53;98953.53;;;11.70;95.20
57779;BME280;43608;49.486;9.640;2023-09-08T02:05:24;98971.19;;;11.80;95.10
57779;BME280;43608;49.486;9.640;2023-09-08T02:05:55;98965.00;;;11.77;94.99
57779;BME280;43608;49.486;9.640;2023-09-08T02:06:26;98963.25;;;11.71;95.05
57779;BME280;43608;49.486;9.640;2023-09-08T02:06:56;98961.47;;;11.71;94.89
57779;BME280;43608;49.486;9.640;2023-09-08T02:07:26;98970.31;;;11.75;94.72
57779;BME280;43608;49.486;9.640;2023-09-08T02:07:57;98952.66;;;11.65;94.94
57779;BME280;43608;49.486;9.640;2023-09-08T02:08:27;98936.78;;;11.54;94.77
57779;BME280;43608;49.486;9.640;2023-09-08T02:08:57;98955.31;;;11.66;95.06
57779;BME280;43608;49.486;9.640;2023-09-08T02:09:36;98960.63;;;11.69;95.12
57779;BME280;43608;49.486;9.640;2023-09-08T02:10:07;98967.69;;;11.70;94.92
57779;BME280;43608;49.486;9.640;2023-09-08T02:10:39;98972.09;;;11.71;94.93
57779;BME280;43608;49.486;9.640;2023-09-08T02:11:10;98952.69;;;11.62;94.73
57779;BME280;43608;49.486;9.640;2023-09-08T02:11:41;98957.09;;;11.64;94.67
57779;BME280;43608;49.486;9.640;2023-09-08T02:12:12;98965.94;;;11.69;95.00
57779;BME280;43608;49.486;9.640;2023-09-08T02:12:42;98947.38;;;11.57;94.98
57779;BME280;43608;49.486;9.640;2023-09-08T02:13:12;98970.34;;;11.69;94.89
57779;BME280;43608;49.486;9.640;2023-09-08T02:13:43;98961.50;;;11.64;94.82
57779;BME280;43608;49.486;9.640;2023-09-08T02:14:13;98966.81;;;11.68;94.96
57779;BME280;43608;49.486;9.640;2023-09-08T02:14:44;98950.03;;;11.55;95.02
57779;BME280;43608;49.486;9.640;2023-09-08T02:15:14;98969.47;;;11.67;94.87
57779;BME280;43608;49.486;9.640;2023-09-08T02:15:47;98957.97;;;11.63;94.78
57779;BME280;43608;49.486;9.640;2023-09-08T02:16:18;98963.28;;;11.65;94.80
57779;BME280;43608;49.486;9.640;2023-09-08T02:16:48;98966.81;;;11.62;94.86
57779;BME280;43608;49.486;9.640;2023-09-08T02:17:18;98958.00;;;11.62;94.87
57779;BME280;43608;49.486;9.640;2023-09-08T02:17:52;98968.59;;;11.63;94.94
57779;BME280;43608;49.486;9.640;2023-09-08T02:18:23;98951.81;;;11.53;94.81
57779;BME280;43608;49.486;9.640;2023-09-08T02:18:54;98929.75;;;11.39;94.74
57779;BME280;43608;49.486;9.640;2023-09-08T02:19:25;98964.19;;;11.61;94.81
57779;BME280;43608;49.486;9.640;2023-09-08T02:19:55;98964.19;;;11.61;94.94
57779;BME280;43608;49.486;9.640;2023-09-08T02:20:26;98943.88;;;11.50;94.84
57779;BME280;43608;49.486;9.640;2023-09-08T02:20:56;98961.53;;;11.59;94.70
57779;BME280;43608;49.486;9.640;2023-09-08T02:21:26;98962.41;;;11.60;94.87
57779;BME280;43608;49.486;9.640;2023-09-08T02:21:57;98952.72;;;11.49;94.96
57779;BME280;43608;49.486;9.640;2023-09-08T02:22:27;98963.31;;;11.57;94.76
57779;BME280;43608;49.486;9.640;2023-09-08T02:23:04;98947.44;;;11.46;94.87
57779;BME280;43608;49.486;9.640;2023-09-08T02:23:35;98949.19;;;11.47;94.87
57779;BME280;43608;49.486;9.640;2023-09-08T02:24:05;98952.75;;;11.45;94.99
57779;BME280;43608;49.486;9.640;2023-09-08T02:24:36;98976.59;;;11.55;95.02
57779;BME280;43608;49.486;9.640;2023-09-08T02:25:06;98969.50;;;11.54;95.12
57779;BME280;43608;49.486;9.640;2023-09-08T02:25:37;98958.03;;;11.48;94.93
57779;BME280;43608;49.486;9.640;2023-09-08T02:26:07;98957.16;;;11.47;95.03
57779;BME280;43608;49.486;9.640;2023-09-08T02:26:41;98970.41;;;11.50;95.15
57779;BME280;43608;49.486;9.640;2023-09-08T02:27:11;98963.34;;;11.48;94.89
57779;BME280;43608;49.486;9.640;2023-09-08T02:27:42;98958.03;;;11.49;95.11
57779;BME280;43608;49.486;9.640;2023-09-08T02:28:12;98965.13;;;11.49;94.91
57779;BME280;43608;49.486;9.640;2023-09-08T02:28:42;98966.88;;;11.50;95.12
57779;BME280;43608;49.486;9.640;2023-09-08T02:29:13;98964.22;;;11.48;94.94
57779;BME280;43608;49.486;9.640;2023-09-08T02:29:43;98966.88;;;11.47;95.16
57779;BME280;43608;49.486;9.640;2023-09-08T02:30:13;98968.66;;;11.48;95.19
57779;BME280;43608;49.486;9.640;2023-09-08T02:30:44;98947.47;;;11.38;95.30
57779;BME280;43608;49.486;9.640;2023-09-08T02:31:14;98957.19;;;11.41;95.26
57779;BME280;43608;49.486;9.640;2023-09-08T02:31:44;98930.69;;;11.26;95.22
57779;BME280;43608;49.486;9.640;2023-09-08T02:32:15;98957.19;;;11.39;95.40
57779;BME280;43608;49.486;9.640;2023-09-08T02:32:45;98957.16;;;11.44;95.22
57779;BME280;43608;49.486;9.640;2023-09-08T02:33:16;98885.69;;;10.99;95.11
57779;BME280;43608;49.486;9.640;2023-09-08T02:33:46;98967.78;;;11.43;95.51
57779;BME280;43608;49.486;9.640;2023-09-08T02:34:16;98950.13;;;11.31;95.25
57779;BME280;43608;49.486;9.640;2023-09-08T02:34:47;98940.41;;;11.30;95.50
57779;BME280;43608;49.486;9.640;2023-09-08T02:35:19;98939.53;;;11.26;95.43
57779;BME280;43608;49.486;9.640;2023-09-08T02:35:50;98954.53;;;11.35;95.49
57779;BME280;43608;49.486;9.640;2023-09-08T02:36:20;98943.03;;;11.31;95.33
57779;BME280;43608;49.486;9.640;2023-09-08T02:36:55;98958.09;;;11.35;95.58
57779;BME280;43608;49.486;9.640;2023-09-08T02:37:25;98946.59;;;11.30;95.49
57779;BME280;43608;49.486;9.640;2023-09-08T02:37:56;98951.91;;;11.30;95.37
57779;BME280;43608;49.486;9.640;2023-09-08T02:38:26;98951.00;;;11.30;95.64
57779;BME280;43608;49.486;9.640;2023-09-08T02:38:56;98956.31;;;11.30;95.52
57779;BME280;43608;49.486;9.640;2023-09-08T02:39:27;98966.94;;;11.33;95.61
57779;BME280;43608;49.486;9.640;2023-09-08T02:39:58;98956.31;;;11.31;95.68
57779;BME280;43608;49.486;9.640;2023-09-08T02:40:28;98959.88;;;11.32;95.58
57779;BME280;43608;49.486;9.640;2023-09-08T02:40:59;98952.78;;;11.26;95.62
57779;BME280;43608;49.486;9.640;2023-09-08T02:41:29;98946.59;;;11.26;95.84
57779;BME280;43608;49.486;9.640;2023-09-08T02:41:59;98951.03;;;11.27;95.71
57779;BME280;43608;49.486;9.640;2023-09-08T02:42:30;98960.75;;;11.26;95.75
57779;BME280;43608;49.486;9.640;2023-09-08T02:43:01;98952.78;;;11.26;95.86
57779;BME280;43608;49.486;9.640;2023-09-08T02:43:32;98945.75;;;11.17;96.04
57779;BME280;43608;49.486;9.640;2023-09-08T02:44:02;98950.13;;;11.26;95.94
57779;BME280;43608;49.486;9.640;2023-09-08T02:44:32;98936.03;;;11.12;95.89
57779;BME280;43608;49.486;9.640;2023-09-08T02:45:03;98959.00;;;11.20;95.96
57779;BME280;43608;49.486;9.640;2023-09-08T02:45:33;98942.22;;;11.14;96.21
57779;BME280;43608;49.486;9.640;2023-09-08T02:46:04;98970.50;;;11.24;96.23
57779;BME280;43608;49.486;9.640;2023-09-08T02:46:34;98944.00;;;11.13;96.39
57779;BME280;43608;49.486;9.640;2023-09-08T02:47:05;98954.59;;;11.18;96.31
57779;BME280;43608;49.486;9.640;2023-09-08T02:47:36;98947.53;;;11.06;96.03
57779;BME280;43608;49.486;9.640;2023-09-08T02:48:06;98962.56;;;11.16;96.26
57779;BME280;43608;49.486;9.640;2023-09-08T02:48:37;98959.00;;;11.16;96.16